WetterOnline ( http://www.wetteronline.de )

Wetter aktuell Grettstadt

Aktuelles Wetter: Bad Kissingen (266m)

6-stündlich | Neueste Meldungen
Ortszeit Temperatur Wetter
Di, 19.03. 1:00 0.3° C wolkig
Mo, 18.03. 19:00 5.3° C fast wolkenlos
Mo, 18.03. 13:00 5.3° C bedeckt
Mo, 18.03. 7:00 2.5° C bedeckt
Mo, 18.03. 1:00 2.1° C wolkenlos
So, 17.03. 19:00 4.7° C leichter Regen
So, 17.03. 13:00 9.2° C Sprühregen
So, 17.03. 7:00 3.7° C fast wolkenlos
Ortszeit Temperatur Wetter
Di, 19.03. 2:30 -0.4° C leicht bewölkt
Di, 19.03. 2:20 -0.4° C leicht bewölkt
Di, 19.03. 2:10 -0.5° C wolkenlos
Di, 19.03. 2:00 -0.3° C wolkenlos
Di, 19.03. 1:50 -0.3° C wolkenlos
Di, 19.03. 1:40 -0.3° C wolkenlos
Di, 19.03. 1:30 -0.0° C fast wolkenlos
Di, 19.03. 1:00 0.3° C wolkig
Di, 19.03. 0:30 0.3° C bedeckt
Di, 19.03. 0:00 0.4° C bedeckt
Mo, 18.03. 23:30 0.5° C bewölkt
Mo, 18.03. 23:00 1.2° C leicht bewölkt
Ortszeit Relative Feuchte Sichtweite
Di, 19.03. 1:00 92% 30 km
Mo, 18.03. 19:00 69% >70 km
Mo, 18.03. 13:00 76% >70 km
Mo, 18.03. 7:00 85% 40 km
Mo, 18.03. 1:00 88% >70 km
So, 17.03. 19:00 81% 12 km
So, 17.03. 13:00 77% 6 km
So, 17.03. 7:00 89% 60 km
Ortszeit Relative Feuchte Sichtweite
Di, 19.03. 2:30 96% 25 km
Di, 19.03. 2:20 96% -
Di, 19.03. 2:10 96% -
Di, 19.03. 2:00 95% 19 km
Di, 19.03. 1:50 95% -
Di, 19.03. 1:40 95% -
Di, 19.03. 1:30 94% 27 km
Di, 19.03. 1:00 92% 30 km
Di, 19.03. 0:30 93% 35 km
Di, 19.03. 0:00 92% 30 km
Mo, 18.03. 23:30 93% 30 km
Mo, 18.03. 23:00 90% 35 km
Ortszeit Niederschlagsmenge Niederschlagsart
Di, 19.03. 1:00 0.0 l/m2 in 6 Std. -
Mo, 18.03. 19:00 0.2 l/m2 in 12 Std. Regen
Mo, 18.03. 13:00 0.1 l/m2 in 6 Std. Regen
Mo, 18.03. 7:00 1 l/m2 in 12 Std. Regen
Mo, 18.03. 1:00 1 l/m2 in 6 Std. Regen
So, 17.03. 19:00 1 l/m2 in 12 Std. Regen
So, 17.03. 13:00 0.1 l/m2 in 6 Std. Regen
So, 17.03. 7:00 0.0 l/m2 in 12 Std. -
Ortszeit Niederschlagsmenge Niederschlagsart
Di, 19.03. 2:30 0.0 l/m2 in 1 Std. -
Di, 19.03. 2:20 keine Meldung -
Di, 19.03. 2:10 keine Meldung -
Di, 19.03. 2:00 0.0 l/m2 in 1 Std. -
Di, 19.03. 1:50 keine Meldung -
Di, 19.03. 1:40 keine Meldung -
Di, 19.03. 1:30 0.0 l/m2 in 1 Std. -
Di, 19.03. 1:00 0.0 l/m2 in 1 Std. -
Di, 19.03. 0:30 0.0 l/m2 in 1 Std. -
Di, 19.03. 0:00 0.0 l/m2 in 1 Std. -
Mo, 18.03. 23:30 0.0 l/m2 in 1 Std. -
Mo, 18.03. 23:00 0.0 l/m2 in 1 Std. -
Ortszeit Stärke Spitze Richtung
km/h Bft. km/h Grad Sektor
Di, 19.03. 1:00 6 1 17 180° S
Mo, 18.03. 19:00 14 3 47 240° SW
Mo, 18.03. 13:00 17 3 43 260° W
Mo, 18.03. 7:00 18 3 29 190° S
Mo, 18.03. 1:00 18 3 47 220° SW
So, 17.03. 19:00 28 4 63 230° SW
So, 17.03. 13:00 22 4 61 220° SW
So, 17.03. 7:00 7 2 14 210° SW
Ortszeit Stärke Spitze Richtung
km/h Bft. km/h Grad Sektor
Di, 19.03. 2:30 4 1 7 160° S
Di, 19.03. 2:20 4 1 - 160° S
Di, 19.03. 2:10 6 1 - 180° S
Di, 19.03. 2:00 6 1 7 190° S
Di, 19.03. 1:50 6 1 - 190° S
Di, 19.03. 1:40 6 1 - 190° S
Di, 19.03. 1:30 6 1 7 160° S
Di, 19.03. 1:00 6 1 9 180° S
Di, 19.03. 0:30 4 1 11 230° SW
Di, 19.03. 0:00 7 2 11 200° S
Mo, 18.03. 23:30 7 2 7 210° SW
Mo, 18.03. 23:00 4 1 7 160° S
Ortszeit Untergrenze Bedeckung Gattung
total tief tief mittel hoch
Di, 19.03. 1:00 2100 m 6/8 6/8 - - -
Mo, 18.03. 19:00 1500 m 1/8 1/8 - - -
Mo, 18.03. 13:00 690 m 8/8 8/8 - - -
Mo, 18.03. 7:00 540 m 8/8 8/8 - - -
Mo, 18.03. 1:00 - 0/8 0/8 - - -
So, 17.03. 19:00 690 m 8/8 8/8 - - -
So, 17.03. 13:00 750 m 7/8 7/8 - - -
So, 17.03. 7:00 8700 m 2/8 0/8 - - -
Ortszeit Bedeckungsgrad in Achtel und Wolkenuntergrenze
Di, 19.03. 2:30 4(1800m)
Di, 19.03. 2:20 4(1800m)
Di, 19.03. 2:10 keine Wolken
Di, 19.03. 2:00 keine Wolken
Di, 19.03. 1:50 keine Wolken
Di, 19.03. 1:40 keine Wolken
Di, 19.03. 1:30 1(2100m)
Di, 19.03. 1:00 6(2100m)
Di, 19.03. 0:30 8(2100m)
Di, 19.03. 0:00 2(1800m) 8(2100m)
Mo, 18.03. 23:30 3(1500m) 7(2100m)
Mo, 18.03. 23:00 4(1470m) 4(2100m)
Ortszeit Luftdruck NN (hPa) Tendenz (hPa in 3 Std.)
Di, 19.03. 1:00 1025 + 1,3
Mo, 18.03. 19:00 1021 + 1,5
Mo, 18.03. 13:00 1019 + 1,5
Mo, 18.03. 7:00 1016 + 1,3
Mo, 18.03. 1:00 1014 + 1,7
So, 17.03. 19:00 1009 + 2,5
So, 17.03. 13:00 1004 + 0,4
So, 17.03. 7:00 1004 - 0,9
Ortszeit Luftdruck NN (hPa) Tendenz (hPa in 3 Std.)
Di, 19.03. 2:30 1026 + 0,9
Di, 19.03. 2:20 1026 keine Meldung
Di, 19.03. 2:10 1026 keine Meldung
Di, 19.03. 2:00 1026 + 1,0
Di, 19.03. 1:50 1026 keine Meldung
Di, 19.03. 1:40 1025 keine Meldung
Di, 19.03. 1:30 1025 + 1,1
Di, 19.03. 1:00 1025 + 1,3
Di, 19.03. 0:30 1025 + 1,3
Di, 19.03. 0:00 1025 + 1,6
Mo, 18.03. 23:30 1025 + 2,1
Mo, 18.03. 23:00 1024 + 2,0
Ortszeit Schneehöhe (cm)
Di, 19.03. 1:00 0
Mo, 18.03. 19:00 0
Mo, 18.03. 13:00 0
Mo, 18.03. 7:00 0
Mo, 18.03. 1:00 0
So, 17.03. 19:00 0
So, 17.03. 13:00 0
So, 17.03. 7:00 0
Ortszeit Schneehöhe (cm)
Di, 19.03. 2:30 0
Di, 19.03. 2:20 0
Di, 19.03. 2:10 0
Di, 19.03. 2:00 0
Di, 19.03. 1:50 0
Di, 19.03. 1:40 0
Di, 19.03. 1:30 0
Di, 19.03. 1:00 0
Di, 19.03. 0:30 0
Di, 19.03. 0:00 0
Mo, 18.03. 23:30 0
Mo, 18.03. 23:00 0
Link zu dieser Seite / Seite empfehlen

Das Wetter in ...